Time;durP1;ratioP1;P1;durP2;ratioP2;P2;SDS_P1;SDS_P2;PMS_P1;PMS_P2;Temp;Humidity;BMP_temperature;BMP_pressure;BME280_temperature;BME280_humidity;BME280_pressure;Samples;Min_cycle;Max_cycle;Signal;HPM_P1;HPM_P2
2021/12/31 06:56:25;;;;;;;;;;;;;;;5.14;100.00;99202.66;5424212;23;19978;-68
2021/12/31 06:58:52;;;;;;;;;;;;;;;5.18;100.00;99198.88;4902080;29;19981;-69
2021/12/31 07:01:21;;;;;;;;;;;;;;;5.20;100.00;99193.81;4901648;29;20294;-69
2021/12/31 07:03:48;;;;;;;;;;;;;;;5.25;100.00;99198.34;4901223;29;19984;-69
2021/12/31 07:06:16;;;;;;;;;;;;;;;5.29;100.00;99197.31;4899234;29;20248;-69
2021/12/31 07:08:45;;;;;;;;;;;;;;;5.32;100.00;99206.91;4884898;29;19984;-69
2021/12/31 07:11:13;;;;;;;;;;;;;;;5.35;100.00;99214.56;4901414;29;19959;-69
2021/12/31 07:13:40;;;;;;;;;;;;;;;5.31;100.00;99208.84;4900427;29;19956;-69
2021/12/31 07:16:07;;;;;;;;;;;;;;;5.29;100.00;99208.41;4901800;29;19969;-69
2021/12/31 07:18:35;;;;;;;;;;;;;;;5.33;100.00;99216.81;4901407;29;19960;-69
2021/12/31 07:21:02;;;;;;;;;;;;;;;5.42;100.00;99227.84;4900834;29;19974;-69
2021/12/31 07:23:29;;;;;;;;;;;;;;;5.37;100.00;99233.59;4901735;29;19951;-69
2021/12/31 07:25:57;;;;;;;;;;;;;;;5.34;100.00;99229.56;4901245;29;19961;-68
2021/12/31 07:28:24;;;;;;;;;;;;;;;5.28;100.00;99230.94;4901746;29;19958;-68
2021/12/31 07:30:51;;;;;;;;;;;;;;;5.37;100.00;99228.06;4901825;29;20331;-68
2021/12/31 07:33:21;;;;;;;;;;;;;;;5.79;100.00;99235.94;4900837;29;19955;-68
2021/12/31 07:35:49;;;;;;;;;;;;;;;6.47;100.00;99233.47;4901129;29;19956;-68
2021/12/31 07:38:21;;;;;;;;;;;;;;;7.00;100.00;99232.34;4900802;29;19952;-68
2021/12/31 07:40:50;;;;;;;;;;;;;;;7.86;100.00;99239.97;4899920;29;20367;-68
2021/12/31 07:43:18;;;;;;;;;;;;;;;9.02;100.00;99245.66;4900779;29;19950;-69
2021/12/31 07:45:47;;;;;;;;;;;;;;;10.05;100.00;99247.78;4900191;29;19951;-68
2021/12/31 07:48:15;;;;;;;;;;;;;;;11.16;100.00;99250.00;4900899;29;19956;-68
2021/12/31 07:50:43;;;;;;;;;;;;;;;11.98;100.00;99251.88;4910976;29;19953;-68
2021/12/31 07:53:10;;;;;;;;;;;;;;;12.98;100.00;99255.94;4899945;29;19957;-69
2021/12/31 07:55:37;;;;;;;;;;;;;;;14.33;100.00;99268.63;4900214;29;20460;-70
2021/12/31 07:58:05;;;;;;;;;;;;;;;15.78;100.00;99272.94;4911174;29;19955;-70
2021/12/31 08:00:32;;;;;;;;;;;;;;;17.27;100.00;99284.00;4905475;29;19969;-70
2021/12/31 08:03:00;;;;;;;;;;;;;;;18.73;100.00;99290.28;4907455;29;21159;-70
2021/12/31 08:05:29;;;;;;;;;;;;;;;20.14;100.00;99290.53;4902887;29;19947;-67
2021/12/31 08:07:56;;;;;;;;;;;;;;;20.98;100.00;99289.81;4906915;29;19951;-67
2021/12/31 08:10:23;;;;;;;;;;;;;;;21.94;95.56;99299.50;4901723;29;19955;-68
2021/12/31 08:13:01;;;;;;;;;;;;;;;22.54;80.03;99300.56;4881729;29;20354;-67
2021/12/31 08:15:29;;;;;;;;;;;;;;;23.38;76.61;99309.25;4897600;29;20416;-67
2021/12/31 08:17:56;;;;;;;;;;;;;;;23.29;70.21;99319.75;4891087;29;19949;-67
2021/12/31 08:20:26;;;;;;;;;;;;;;;22.55;71.11;99313.56;4898716;29;20393;-67
2021/12/31 08:22:53;;;;;;;;;;;;;;;22.34;69.41;99317.88;4906221;29;19947;-67
2021/12/31 08:25:21;;;;;;;;;;;;;;;22.29;68.71;99318.41;4900113;29;19977;-67
2021/12/31 08:27:48;;;;;;;;;;;;;;;21.59;65.51;99313.44;4896741;29;19951;-67
2021/12/31 08:30:15;;;;;;;;;;;;;;;21.06;68.78;99321.75;4907293;29;19951;-68
2021/12/31 08:32:43;;;;;;;;;;;;;;;20.05;72.42;99320.75;4901163;29;19946;-67
2021/12/31 08:35:10;;;;;;;;;;;;;;;19.35;77.50;99328.53;4913055;29;19951;-67
2021/12/31 08:37:38;;;;;;;;;;;;;;;18.68;78.35;99319.09;4910686;29;19952;-67
2021/12/31 08:40:05;;;;;;;;;;;;;;;18.32;82.01;99317.97;4893199;29;19946;-67
2021/12/31 08:42:33;;;;;;;;;;;;;;;17.82;84.62;99331.94;4901025;29;20359;-71
2021/12/31 08:45:08;;;;;;;;;;;;;;;17.46;85.77;99317.34;5317169;24;19960;31
2021/12/31 08:47:35;;;;;;;;;;;;;;;17.71;84.76;99317.91;4823292;29;19972;-69
2021/12/31 08:50:03;;;;;;;;;;;;;;;17.34;87.61;99312.22;4825804;29;19951;-69
2021/12/31 08:52:30;;;;;;;;;;;;;;;16.35;94.42;99312.97;4825847;29;19957;-70
2021/12/31 08:54:58;;;;;;;;;;;;;;;15.31;100.00;99314.94;4831572;29;19957;-69
2021/12/31 08:57:25;;;;;;;;;;;;;;;14.67;100.00;99326.19;4830220;29;19961;-69
2021/12/31 08:59:52;;;;;;;;;;;;;;;14.03;100.00;99316.75;4824564;29;19948;-69
2021/12/31 09:02:20;;;;;;;;;;;;;;;13.49;100.00;99314.91;4842535;29;20267;-69
2021/12/31 09:04:47;;;;;;;;;;;;;;;13.06;100.00;99310.19;4833256;29;19955;-69
2021/12/31 09:07:14;;;;;;;;;;;;;;;12.71;100.00;99316.31;4828615;29;19952;-69
2021/12/31 09:09:42;;;;;;;;;;;;;;;12.45;100.00;99322.03;4830953;29;20387;-69
2021/12/31 09:12:09;;;;;;;;;;;;;;;12.25;100.00;99318.63;4826067;29;19984;-69
2021/12/31 09:14:36;;;;;;;;;;;;;;;11.95;100.00;99320.72;4831189;29;19954;-69
2021/12/31 09:17:04;;;;;;;;;;;;;;;11.80;100.00;99319.72;4833594;29;19959;-69
2021/12/31 09:19:31;;;;;;;;;;;;;;;11.68;100.00;99313.56;4833810;29;20245;-69
2021/12/31 09:21:58;;;;;;;;;;;;;;;11.49;100.00;99311.66;4833026;29;19968;-69
2021/12/31 09:24:26;;;;;;;;;;;;;;;11.45;100.00;99313.63;4830671;29;20317;-69
2021/12/31 09:26:53;;;;;;;;;;;;;;;11.42;100.00;99305.19;4842539;29;19947;-69
2021/12/31 09:29:23;;;;;;;;;;;;;;;11.40;100.00;99311.16;4842486;29;19948;-69
2021/12/31 09:31:51;;;;;;;;;;;;;;;11.42;100.00;99308.78;4841715;29;19961;-69
2021/12/31 09:34:20;;;;;;;;;;;;;;;11.40;100.00;99297.13;4820459;29;20041;-69
2021/12/31 09:36:47;;;;;;;;;;;;;;;11.45;100.00;99298.81;4836740;29;19952;-69
2021/12/31 09:39:14;;;;;;;;;;;;;;;11.46;100.00;99306.84;4824658;29;19949;-68
2021/12/31 09:41:43;;;;;;;;;;;;;;;11.54;100.00;99310.56;4826283;29;19970;-69
2021/12/31 09:44:14;;;;;;;;;;;;;;;11.39;100.00;99306.75;4822352;29;19958;-69
2021/12/31 09:46:42;;;;;;;;;;;;;;;11.54;100.00;99313.34;4845415;29;19977;-68
2021/12/31 09:49:10;;;;;;;;;;;;;;;11.55;100.00;99306.53;4834371;29;20259;-68
2021/12/31 09:51:40;;;;;;;;;;;;;;;11.67;100.00;99311.91;4839382;29;20346;-68
2021/12/31 09:54:08;;;;;;;;;;;;;;;11.80;100.00;99307.72;4844066;29;20233;-69
2021/12/31 09:56:39;;;;;;;;;;;;;;;11.95;100.00;99320.72;4844034;29;20229;-69
2021/12/31 09:59:07;;;;;;;;;;;;;;;12.04;100.00;99321.22;4846585;29;19957;-69
2021/12/31 10:01:44;;;;;;;;;;;;;;;12.09;100.00;99320.88;4829299;29;19967;-69
2021/12/31 10:04:12;;;;;;;;;;;;;;;12.12;100.00;99319.31;4834337;29;20350;-69
2021/12/31 10:06:59;;;;;;;;;;;;;;;12.22;100.00;99311.00;4837070;29;19966;-70
2021/12/31 10:09:26;;;;;;;;;;;;;;;12.28;100.00;99305.84;4831031;29;19984;-69
2021/12/31 10:12:04;;;;;;;;;;;;;;;12.46;100.00;99310.47;4823477;29;19952;-69
2021/12/31 10:14:35;;;;;;;;;;;;;;;12.58;100.00;99305.75;4828022;29;20386;-69
2021/12/31 10:17:05;;;;;;;;;;;;;;;12.71;100.00;99301.47;4828934;29;19961;-69
2021/12/31 10:19:32;;;;;;;;;;;;;;;12.85;100.00;99290.34;4835145;29;19964;-69
2021/12/31 10:22:00;;;;;;;;;;;;;;;13.04;100.00;99299.31;4837555;29;19973;-69
2021/12/31 10:24:36;;;;;;;;;;;;;;;13.22;100.00;99302.28;4825734;29;19967;-69
2021/12/31 10:27:12;;;;;;;;;;;;;;;13.27;100.00;99293.50;4829645;29;20362;-69
2021/12/31 10:29:58;;;;;;;;;;;;;;;13.24;100.00;99290.66;4831087;29;19957;-69
2021/12/31 10:32:27;;;;;;;;;;;;;;;13.11;100.00;99284.53;4831686;29;19957;-68
2021/12/31 10:35:06;;;;;;;;;;;;;;;13.04;100.00;99295.69;4833557;29;19953;-68
2021/12/31 10:37:41;;;;;;;;;;;;;;;13.06;100.00;99288.53;4824342;29;19953;-68
2021/12/31 10:40:08;;;;;;;;;;;;;;;13.00;100.00;99287.28;4826217;29;19967;-68
2021/12/31 10:42:40;;;;;;;;;;;;;;;13.01;100.00;99291.66;4825920;29;20448;-69
2021/12/31 10:45:09;;;;;;;;;;;;;;;13.03;100.00;99285.69;4825547;29;19963;-69
2021/12/31 10:47:38;;;;;;;;;;;;;;;13.00;100.00;99278.03;4826743;29;19952;-68
2021/12/31 10:50:07;;;;;;;;;;;;;;;12.97;100.00;99281.63;4832699;29;19952;-69
2021/12/31 10:52:43;;;;;;;;;;;;;;;12.94;100.00;99271.16;4837783;29;19958;-69
2021/12/31 10:55:24;;;;;;;;;;;;;;;12.93;100.00;99280.78;4837858;29;19953;-68
2021/12/31 10:57:53;;;;;;;;;;;;;;;12.91;100.00;99272.75;4845639;29;20374;-68
2021/12/31 11:00:21;;;;;;;;;;;;;;;12.98;100.00;99269.19;4822784;29;19957;-68
2021/12/31 11:02:49;;;;;;;;;;;;;;;12.95;100.00;99269.97;4822917;29;19974;-68
2021/12/31 11:05:17;;;;;;;;;;;;;;;12.64;100.00;99259.31;4834876;29;19949;-68
2021/12/31 11:07:45;;;;;;;;;;;;;;;12.56;100.00;99250.03;4827317;29;19964;-68
2021/12/31 11:10:37;;;;;;;;;;;;;;;12.70;100.00;99243.72;4826367;29;19952;-68
2021/12/31 11:13:14;;;;;;;;;;;;;;;12.66;100.00;99229.66;4826203;29;20346;-68
2021/12/31 11:15:43;;;;;;;;;;;;;;;12.61;100.00;99235.66;4826671;29;19955;-68
2021/12/31 11:18:12;;;;;;;;;;;;;;;12.47;100.00;99236.31;4839592;29;20220;-68
2021/12/31 11:20:40;;;;;;;;;;;;;;;12.23;100.00;99233.28;4831144;29;19962;-68
2021/12/31 11:23:07;;;;;;;;;;;;;;;12.15;100.00;99231.63;4827065;29;19979;-68
2021/12/31 11:25:50;;;;;;;;;;;;;;;11.97;100.00;99227.81;4825295;29;20002;-68
2021/12/31 11:28:28;;;;;;;;;;;;;;;12.18;100.00;99231.63;4826962;29;19943;-68
2021/12/31 11:30:56;;;;;;;;;;;;;;;12.07;100.00;99222.34;4828691;29;20282;-68
2021/12/31 11:33:26;;;;;;;;;;;;;;;12.00;100.00;99222.25;4827651;29;19952;-68
2021/12/31 11:35:53;;;;;;;;;;;;;;;11.99;100.00;99209.44;4827143;29;19957;-68
2021/12/31 11:38:21;;;;;;;;;;;;;;;11.66;100.00;99213.03;4826656;29;19959;-68
2021/12/31 11:41:00;;;;;;;;;;;;;;;11.57;100.00;99211.72;4825977;29;19957;-68
2021/12/31 11:43:28;;;;;;;;;;;;;;;11.33;100.00;99213.03;4827062;29;19973;-68
2021/12/31 11:46:21;;;;;;;;;;;;;;;11.09;100.00;99205.13;4827238;29;20010;-68
2021/12/31 11:48:53;;;;;;;;;;;;;;;11.13;100.00;99203.16;4845687;29;19949;-68
2021/12/31 11:51:21;;;;;;;;;;;;;;;11.30;100.00;99208.19;4845627;29;19959;-68
2021/12/31 11:53:57;;;;;;;;;;;;;;;11.41;100.00;99195.16;4838202;29;19951;-68
2021/12/31 11:56:37;;;;;;;;;;;;;;;10.78;100.00;99191.50;4825712;29;20269;-68
2021/12/31 11:59:07;;;;;;;;;;;;;;;10.88;100.00;99190.84;4824307;29;19956;-68
2021/12/31 12:01:37;;;;;;;;;;;;;;;11.08;100.00;99189.50;4824252;29;19956;-68
2021/12/31 12:04:22;;;;;;;;;;;;;;;10.71;100.00;99185.81;4825901;29;20830;-68
2021/12/31 12:06:59;;;;;;;;;;;;;;;10.55;100.00;99186.78;4809940;29;20250;-68
2021/12/31 12:09:36;;;;;;;;;;;;;;;10.64;100.00;99189.28;4808483;29;19954;-68
2021/12/31 12:12:15;;;;;;;;;;;;;;;10.70;100.00;99182.19;4808482;29;19962;-68
2021/12/31 12:14:43;;;;;;;;;;;;;;;10.50;100.00;99184.28;4808416;29;19951;-68
2021/12/31 12:17:12;;;;;;;;;;;;;;;10.61;100.00;99189.25;4817151;29;19961;-68
2021/12/31 12:19:49;;;;;;;;;;;;;;;10.64;100.00;99189.28;4836027;29;19964;-69
2021/12/31 12:22:28;;;;;;;;;;;;;;;10.63;100.00;99204.47;4833136;29;19969;-68
2021/12/31 12:24:56;;;;;;;;;;;;;;;10.45;100.00;99204.19;4831903;29;19955;-68
2021/12/31 12:27:24;;;;;;;;;;;;;;;10.20;100.00;99202.16;4829156;29;19961;-68
2021/12/31 12:29:52;;;;;;;;;;;;;;;10.09;100.00;99196.38;4834137;29;19949;-68
2021/12/31 12:32:33;;;;;;;;;;;;;;;10.02;100.00;99196.25;4831031;29;19954;-68
2021/12/31 12:35:13;;;;;;;;;;;;;;;9.86;100.00;99204.72;4816967;29;20267;-68
2021/12/31 12:37:41;;;;;;;;;;;;;;;9.68;100.00;99209.16;4824155;29;19950;-68
2021/12/31 12:40:09;;;;;;;;;;;;;;;9.60;100.00;99210.22;4824710;29;19954;-68
2021/12/31 12:42:43;;;;;;;;;;;;;;;9.39;100.00;99212.56;4827119;29;19981;-68
2021/12/31 12:45:12;;;;;;;;;;;;;;;9.44;100.00;99215.06;4830669;29;19959;-68
2021/12/31 12:47:39;;;;;;;;;;;;;;;9.53;100.00;99217.66;4831087;29;19970;-68
2021/12/31 12:50:09;;;;;;;;;;;;;;;9.57;100.00;99219.34;4827961;29;19959;-68
2021/12/31 12:52:36;;;;;;;;;;;;;;;9.50;100.00;99219.19;4828164;29;19962;-68
2021/12/31 12:55:13;;;;;;;;;;;;;;;9.23;100.00;99209.06;4838249;29;19957;-69
2021/12/31 12:57:41;;;;;;;;;;;;;;;9.31;100.00;99213.63;4828431;29;19950;-68
2021/12/31 13:00:09;;;;;;;;;;;;;;;9.27;100.00;99206.34;4832332;29;19962;-68
2021/12/31 13:02:37;;;;;;;;;;;;;;;9.41;100.00;99221.41;4830821;29;19980;-68
2021/12/31 13:05:05;;;;;;;;;;;;;;;9.27;100.00;99216.31;4828205;29;19950;-68
2021/12/31 13:07:32;;;;;;;;;;;;;;;9.40;100.00;99208.63;4827918;29;19963;-67
2021/12/31 13:10:07;;;;;;;;;;;;;;;9.33;100.00;99188.13;4829551;29;19950;-68
2021/12/31 13:12:36;;;;;;;;;;;;;;;9.44;100.00;99189.16;4832661;29;19948;-68
2021/12/31 13:15:04;;;;;;;;;;;;;;;9.44;100.00;99180.78;4839480;29;19955;-68
2021/12/31 13:17:36;;;;;;;;;;;;;;;9.53;100.00;99178.56;4829453;29;19951;-68
2021/12/31 13:20:04;;;;;;;;;;;;;;;9.52;100.00;99172.16;4823958;29;19954;-68
2021/12/31 13:22:33;;;;;;;;;;;;;;;9.62;100.00;99173.53;4836094;29;19950;-68
2021/12/31 13:25:00;;;;;;;;;;;;;;;9.66;100.00;99183.59;4838929;29;20308;-68
2021/12/31 13:27:29;;;;;;;;;;;;;;;9.66;100.00;99186.38;4828778;29;19958;-68
2021/12/31 13:30:08;;;;;;;;;;;;;;;9.65;100.00;99195.97;4834326;29;19963;-68
2021/12/31 13:32:40;;;;;;;;;;;;;;;9.48;100.00;99188.06;4835166;29;19967;-68
2021/12/31 13:35:09;;;;;;;;;;;;;;;9.52;100.00;99188.09;4835612;29;19987;-68
2021/12/31 13:37:40;;;;;;;;;;;;;;;9.37;100.00;99200.97;4829729;29;19950;-68
2021/12/31 13:40:19;;;;;;;;;;;;;;;9.29;100.00;99202.03;4828558;29;19952;-68
2021/12/31 13:43:00;;;;;;;;;;;;;;;9.15;100.00;99188.56;4828840;29;19977;-68
2021/12/31 13:45:27;;;;;;;;;;;;;;;9.08;100.00;99190.41;4827555;29;19975;-68
2021/12/31 13:48:07;;;;;;;;;;;;;;;9.06;100.00;99189.97;4814096;29;19953;-68
2021/12/31 13:50:35;;;;;;;;;;;;;;;9.05;100.00;99179.97;4833615;29;20373;-68
2021/12/31 13:53:02;;;;;;;;;;;;;;;9.02;100.00;99184.28;4828046;29;20033;-68
2021/12/31 13:55:30;;;;;;;;;;;;;;;8.97;100.00;99192.16;4829499;29;19957;-67
2021/12/31 13:57:57;;;;;;;;;;;;;;;8.92;100.00;99184.91;4833997;29;19958;-68
2021/12/31 14:00:40;;;;;;;;;;;;;;;8.82;100.00;99182.69;4835032;29;20343;-68
2021/12/31 14:03:18;;;;;;;;;;;;;;;8.86;100.00;99177.97;4838403;29;20340;-67
2021/12/31 14:05:54;;;;;;;;;;;;;;;8.85;100.00;99179.13;4834076;29;20344;-68
2021/12/31 14:10:58;;;;;;;;;;;;;;;8.83;100.00;99164.75;4846765;29;19957;-68
2021/12/31 14:13:25;;;;;;;;;;;;;;;8.82;100.00;99156.75;4818664;29;19956;-68
2021/12/31 14:15:53;;;;;;;;;;;;;;;8.91;100.00;99151.78;4819340;29;20398;-68
2021/12/31 14:18:20;;;;;;;;;;;;;;;8.90;100.00;99139.03;4828218;29;19965;-68
2021/12/31 14:20:47;;;;;;;;;;;;;;;8.87;100.00;99123.81;4825832;29;19953;-68
2021/12/31 14:23:15;;;;;;;;;;;;;;;8.97;100.00;99120.44;4829112;29;21002;-68
2021/12/31 14:25:44;;;;;;;;;;;;;;;8.84;100.00;99112.59;4828096;29;19960;-68
2021/12/31 14:28:13;;;;;;;;;;;;;;;8.90;100.00;99111.13;4836623;29;19988;-68
2021/12/31 14:30:43;;;;;;;;;;;;;;;8.90;100.00;99111.91;4844573;29;19958;-68
2021/12/31 14:33:12;;;;;;;;;;;;;;;8.96;100.00;99115.22;4841383;29;19956;-68
2021/12/31 14:35:59;;;;;;;;;;;;;;;9.02;100.00;99108.97;4833844;29;20493;-68
2021/12/31 14:38:30;;;;;;;;;;;;;;;9.08;100.00;99101.13;4824571;29;19990;-68
2021/12/31 14:41:03;;;;;;;;;;;;;;;9.05;100.00;99096.25;4833752;29;20365;-68
2021/12/31 14:43:30;;;;;;;;;;;;;;;8.98;100.00;99083.00;4824287;29;19970;-68
2021/12/31 14:45:58;;;;;;;;;;;;;;;8.99;100.00;99092.19;4829130;29;19968;-68
2021/12/31 14:48:25;;;;;;;;;;;;;;;8.99;100.00;99101.34;4830988;29;19957;-68
2021/12/31 14:50:53;;;;;;;;;;;;;;;8.94;100.00;99093.28;4825743;29;19975;-68
2021/12/31 14:53:20;;;;;;;;;;;;;;;8.87;100.00;99079.19;4831483;29;19954;-68
2021/12/31 14:55:48;;;;;;;;;;;;;;;8.82;100.00;99073.91;4824243;29;19954;-68
2021/12/31 14:58:15;;;;;;;;;;;;;;;8.71;100.00;99083.22;4840946;29;19964;-68
2021/12/31 15:00:42;;;;;;;;;;;;;;;8.68;100.00;99087.53;4829239;29;19956;-68
2021/12/31 15:03:10;;;;;;;;;;;;;;;8.65;100.00;99109.78;4839721;29;19959;-68
2021/12/31 15:05:37;;;;;;;;;;;;;;;8.54;100.00;99118.72;4829180;29;19960;-68
2021/12/31 15:08:04;;;;;;;;;;;;;;;8.51;100.00;99138.13;4829237;29;19966;-68
2021/12/31 15:10:32;;;;;;;;;;;;;;;8.43;100.00;99131.63;4830962;29;19954;-68
2021/12/31 15:12:59;;;;;;;;;;;;;;;8.39;100.00;99119.56;4830625;29;19963;-68
2021/12/31 15:15:26;;;;;;;;;;;;;;;8.33;100.00;99097.94;4830085;29;19954;-68
2021/12/31 15:17:54;;;;;;;;;;;;;;;8.21;100.00;99090.47;4831695;29;19956;-68
2021/12/31 15:20:21;;;;;;;;;;;;;;;8.03;100.00;99088.44;4819627;29;19954;-68
2021/12/31 15:22:51;;;;;;;;;;;;;;;7.82;100.00;99083.16;4843929;29;19955;-68
2021/12/31 15:25:18;;;;;;;;;;;;;;;7.73;100.00;99080.56;4829840;29;19971;-68
2021/12/31 15:27:45;;;;;;;;;;;;;;;7.74;100.00;99070.22;4836968;29;19963;-68
2021/12/31 15:30:13;;;;;;;;;;;;;;;7.67;100.00;99047.78;4828661;29;19956;-70
2021/12/31 15:32:40;;;;;;;;;;;;;;;7.54;100.00;99029.56;4838297;29;19961;-70
2021/12/31 15:35:08;;;;;;;;;;;;;;;7.48;100.00;99033.81;4834579;29;20257;-70
2021/12/31 15:37:37;;;;;;;;;;;;;;;7.41;100.00;99059.47;4828849;29;19958;-71
2021/12/31 15:40:05;;;;;;;;;;;;;;;7.41;100.00;99072.59;4809742;29;19959;-70
2021/12/31 15:42:34;;;;;;;;;;;;;;;7.45;100.00;99084.59;4829584;29;19957;-70
2021/12/31 15:45:02;;;;;;;;;;;;;;;7.44;100.00;99094.91;4821925;29;19972;-68
2021/12/31 15:47:29;;;;;;;;;;;;;;;7.36;100.00;99114.59;4827266;29;19984;-68
2021/12/31 15:49:56;;;;;;;;;;;;;;;7.14;100.00;99118.75;4837613;29;19960;-68
2021/12/31 15:52:24;;;;;;;;;;;;;;;7.00;100.00;99135.84;4830246;29;20231;-68
2021/12/31 15:54:52;;;;;;;;;;;;;;;6.98;100.00;99167.94;4839170;29;19983;-70
2021/12/31 15:57:20;;;;;;;;;;;;;;;6.64;100.00;99202.66;4825963;29;19991;-70
2021/12/31 15:59:50;;;;;;;;;;;;;;;6.28;100.00;99180.50;4835014;29;20438;-70
2021/12/31 16:02:18;;;;;;;;;;;;;;;5.95;100.00;99173.09;4841004;29;20282;-70
2021/12/31 16:04:46;;;;;;;;;;;;;;;5.60;100.00;99169.06;4828964;29;19970;-71
2021/12/31 16:07:13;;;;;;;;;;;;;;;5.31;100.00;99172.00;4836972;29;20343;-70
2021/12/31 16:09:41;;;;;;;;;;;;;;;5.15;100.00;99196.78;4831929;29;19955;-71
2021/12/31 16:12:09;;;;;;;;;;;;;;;5.09;100.00;99203.69;4835243;29;19964;-71
2021/12/31 16:14:36;;;;;;;;;;;;;;;5.06;100.00;99206.34;4838076;29;19951;-71
2021/12/31 16:17:04;;;;;;;;;;;;;;;5.02;100.00;99217.28;4827241;29;19960;-71
2021/12/31 16:19:32;;;;;;;;;;;;;;;4.93;100.00;99208.25;4834946;29;19962;-70
2021/12/31 16:22:01;;;;;;;;;;;;;;;4.87;100.00;99220.66;4831723;29;19964;-70
2021/12/31 16:24:30;;;;;;;;;;;;;;;4.94;100.00;99234.00;4829591;29;19978;-70
2021/12/31 16:26:57;;;;;;;;;;;;;;;4.95;100.00;99203.16;4831667;29;20361;-70
2021/12/31 16:29:45;;;;;;;;;;;;;;;5.05;100.00;99201.94;4834797;29;19981;-70
2021/12/31 16:32:12;;;;;;;;;;;;;;;5.04;100.00;99214.97;4834121;29;19958;-70
2021/12/31 16:34:41;;;;;;;;;;;;;;;5.08;100.00;99209.59;4836068;29;19955;-70
2021/12/31 16:37:09;;;;;;;;;;;;;;;5.12;100.00;99202.19;4836857;29;19957;-70
2021/12/31 16:39:41;;;;;;;;;;;;;;;5.21;100.00;99206.50;4832650;29;19964;-70
2021/12/31 16:42:10;;;;;;;;;;;;;;;5.23;100.00;99209.75;4836135;29;20378;-70
2021/12/31 16:44:38;;;;;;;;;;;;;;;5.33;100.00;99189.91;4827560;29;19977;-70
2021/12/31 16:47:06;;;;;;;;;;;;;;;5.33;100.00;99195.47;4827956;29;20370;-70
2021/12/31 16:49:33;;;;;;;;;;;;;;;5.35;100.00;99189.59;4832399;29;19962;-70
2021/12/31 16:52:03;;;;;;;;;;;;;;;5.37;100.00;99205.88;4824884;29;19956;-70
2021/12/31 16:54:31;;;;;;;;;;;;;;;5.29;100.00;99211.16;4825205;29;20350;-70
2021/12/31 16:56:59;;;;;;;;;;;;;;;5.31;100.00;99217.19;4839188;29;19953;-70
2021/12/31 16:59:26;;;;;;;;;;;;;;;5.45;100.00;99210.53;4836620;29;20357;-70
2021/12/31 17:01:54;;;;;;;;;;;;;;;5.48;100.00;99223.72;4829238;29;19960;-70
2021/12/31 17:04:21;;;;;;;;;;;;;;;5.54;100.00;99228.72;4832446;29;20262;-70
2021/12/31 17:06:49;;;;;;;;;;;;;;;5.59;100.00;99230.44;4830645;29;19961;-70
2021/12/31 17:09:16;;;;;;;;;;;;;;;5.65;100.00;99221.56;4824878;29;19958;-70
2021/12/31 17:11:43;;;;;;;;;;;;;;;5.72;100.00;99235.69;4828951;29;19959;-70
2021/12/31 17:14:11;;;;;;;;;;;;;;;5.82;100.00;99242.78;4822978;29;19957;-70
2021/12/31 17:16:38;;;;;;;;;;;;;;;5.90;100.00;99242.69;4822137;29;19952;-70
2021/12/31 17:19:06;;;;;;;;;;;;;;;5.88;100.00;99245.00;4828134;29;19957;-70
2021/12/31 17:21:33;;;;;;;;;;;;;;;5.86;100.00;99243.72;4828873;29;19969;-70
2021/12/31 17:24:00;;;;;;;;;;;;;;;5.89;100.00;99243.84;4834124;29;19962;-70
2021/12/31 17:26:28;;;;;;;;;;;;;;;6.06;100.00;99222.59;4828026;29;19953;-70
2021/12/31 17:28:55;;;;;;;;;;;;;;;6.15;100.00;99221.34;4821068;29;19954;-70
2021/12/31 17:31:23;;;;;;;;;;;;;;;6.17;100.00;99224.56;4824454;29;20373;-70
2021/12/31 17:33:50;;;;;;;;;;;;;;;6.17;100.00;99219.00;4823422;29;19957;-70
2021/12/31 17:36:17;;;;;;;;;;;;;;;6.33;100.00;99227.47;4829082;29;19960;-70
2021/12/31 17:38:45;;;;;;;;;;;;;;;6.40;100.00;99222.16;4830038;29;19956;-70
2021/12/31 17:41:13;;;;;;;;;;;;;;;6.45;100.00;99244.97;4835216;29;19953;-70
2021/12/31 17:43:40;;;;;;;;;;;;;;;6.50;100.00;99243.91;4823681;29;19957;-70
2021/12/31 17:46:10;;;;;;;;;;;;;;;6.59;100.00;99237.06;4824815;29;19988;-70
2021/12/31 17:48:38;;;;;;;;;;;;;;;6.66;100.00;99239.25;4837416;29;20271;-70
2021/12/31 17:51:06;;;;;;;;;;;;;;;6.74;100.00;99234.72;4830004;29;19959;-70
2021/12/31 17:53:33;;;;;;;;;;;;;;;6.82;100.00;99231.00;4821816;29;19957;-70
2021/12/31 17:56:00;;;;;;;;;;;;;;;6.89;100.00;99232.03;4826584;29;19952;-70
2021/12/31 17:58:27;;;;;;;;;;;;;;;6.97;100.00;99231.06;4836145;29;19969;-70
2021/12/31 18:00:56;;;;;;;;;;;;;;;7.01;100.00;99226.44;4827948;29;19988;-70
2021/12/31 18:03:23;;;;;;;;;;;;;;;7.04;100.00;99227.72;4835343;29;20724;-70
2021/12/31 18:05:50;;;;;;;;;;;;;;;7.08;100.00;99232.22;4840439;29;19998;-70
2021/12/31 18:08:18;;;;;;;;;;;;;;;7.10;100.00;99229.06;4832696;29;19963;-70
2021/12/31 18:10:45;;;;;;;;;;;;;;;7.14;100.00;99228.00;4831220;29;19958;-70
2021/12/31 18:13:12;;;;;;;;;;;;;;;7.20;100.00;99229.41;4836456;29;19956;-70
2021/12/31 18:15:40;;;;;;;;;;;;;;;7.25;100.00;99236.69;4841149;29;19958;-70
2021/12/31 18:18:08;;;;;;;;;;;;;;;7.31;100.00;99226.13;4824421;29;19955;-70
2021/12/31 18:20:35;;;;;;;;;;;;;;;7.35;100.00;99222.28;4833760;29;19963;-70
2021/12/31 18:23:03;;;;;;;;;;;;;;;7.39;100.00;99222.34;4822725;29;20270;-70
2021/12/31 18:25:31;;;;;;;;;;;;;;;7.44;100.00;99217.34;4829827;29;20342;-71
2021/12/31 18:27:58;;;;;;;;;;;;;;;7.50;100.00;99215.94;4834410;29;19956;-70
2021/12/31 18:30:25;;;;;;;;;;;;;;;7.58;100.00;99226.09;4823564;29;19953;-70
2021/12/31 18:32:53;;;;;;;;;;;;;;;7.67;100.00;99225.94;4832238;29;19966;-70
2021/12/31 18:35:21;;;;;;;;;;;;;;;7.71;100.00;99218.50;4827409;29;19964;-70
2021/12/31 18:37:48;;;;;;;;;;;;;;;7.76;100.00;99223.78;4832207;29;20341;-70
2021/12/31 18:40:15;;;;;;;;;;;;;;;7.77;100.00;99217.06;4825865;29;19980;-70
2021/12/31 18:42:43;;;;;;;;;;;;;;;7.82;100.00;99208.47;4831274;29;19948;-70
2021/12/31 18:45:12;;;;;;;;;;;;;;;7.83;100.00;99207.28;4829319;29;19975;-70
2021/12/31 18:47:49;;;;;;;;;;;;;;;7.85;100.00;99216.06;4828510;29;20269;-70
2021/12/31 18:50:22;;;;;;;;;;;;;;;7.85;100.00;99222.47;4828041;29;19966;-70
2021/12/31 18:52:50;;;;;;;;;;;;;;;7.88;100.00;99204.22;4834588;29;19956;-68
2021/12/31 18:55:18;;;;;;;;;;;;;;;8.04;100.00;99193.09;4827445;29;20354;-66
2021/12/31 18:57:46;;;;;;;;;;;;;;;8.08;100.00;99208.75;4818227;29;19962;-69
2021/12/31 19:00:13;;;;;;;;;;;;;;;7.97;100.00;99202.09;4827857;29;20034;-69
2021/12/31 19:02:41;;;;;;;;;;;;;;;7.93;100.00;99213.13;4831953;29;19960;-67
2021/12/31 19:05:08;;;;;;;;;;;;;;;7.95;100.00;99209.97;4830652;29;19973;-66
2021/12/31 19:07:36;;;;;;;;;;;;;;;8.03;100.00;99205.41;4823952;29;19960;-66
2021/12/31 19:10:05;;;;;;;;;;;;;;;8.03;100.00;99206.22;4828036;29;20606;-66
2021/12/31 19:12:32;;;;;;;;;;;;;;;8.10;100.00;99211.97;4828182;29;19960;-66
2021/12/31 19:15:00;;;;;;;;;;;;;;;8.14;100.00;99232.38;4831914;29;19959;-67
2021/12/31 19:17:27;;;;;;;;;;;;;;;8.16;100.00;99223.66;4827967;29;19951;-66
2021/12/31 19:19:55;;;;;;;;;;;;;;;8.19;100.00;99228.53;4827961;29;20510;-66
2021/12/31 19:22:23;;;;;;;;;;;;;;;8.26;100.00;99229.53;4835579;29;19955;-66
2021/12/31 19:24:51;;;;;;;;;;;;;;;8.23;100.00;99226.63;4816600;29;19952;-66
2021/12/31 19:27:18;;;;;;;;;;;;;;;8.18;100.00;99227.69;4827056;29;19979;-66
2021/12/31 19:29:45;;;;;;;;;;;;;;;8.14;100.00;99231.56;4809769;29;19994;-66
2021/12/31 19:32:13;;;;;;;;;;;;;;;8.04;100.00;99230.13;4827057;29;19958;-66
2021/12/31 19:34:41;;;;;;;;;;;;;;;8.02;100.00;99234.44;4825945;29;20252;-66
2021/12/31 19:37:08;;;;;;;;;;;;;;;8.06;100.00;99238.13;4824909;29;19963;-66
2021/12/31 19:39:36;;;;;;;;;;;;;;;8.04;100.00;99246.03;4826261;29;19953;-66
2021/12/31 19:42:03;;;;;;;;;;;;;;;7.94;100.00;99250.16;4838208;29;20403;-66
2021/12/31 19:44:31;;;;;;;;;;;;;;;7.87;100.00;99247.19;4837499;29;19967;-66
2021/12/31 19:46:58;;;;;;;;;;;;;;;7.94;100.00;99252.94;4828557;29;20435;-67
2021/12/31 19:49:26;;;;;;;;;;;;;;;7.93;100.00;99245.75;4820360;29;20330;-67
2021/12/31 19:51:53;;;;;;;;;;;;;;;7.85;100.00;99241.94;4822788;29;20432;-67